createdAt,value
2017-04-22T00:00:48.389Z,9.17
2017-04-22T00:01:57.672Z,9.21
2017-04-22T00:03:06.620Z,9.15
2017-04-22T00:04:15.567Z,9.13
2017-04-22T00:05:24.825Z,9.08
2017-04-22T00:06:33.776Z,9.14
2017-04-22T00:07:42.724Z,9.17
2017-04-22T00:08:51.676Z,9.21
2017-04-22T00:10:00.636Z,9.17
2017-04-22T00:11:09.922Z,9.13
2017-04-22T00:12:18.889Z,9.14
2017-04-22T00:13:27.859Z,9.05
2017-04-22T00:14:36.825Z,9.13
2017-04-22T00:15:45.775Z,9.1
2017-04-22T00:16:54.986Z,9.05
2017-04-22T00:18:03.938Z,9.08
2017-04-22T00:19:12.983Z,9.13
2017-04-22T00:20:21.943Z,9.04
2017-04-22T00:21:30.889Z,9.14
2017-04-22T00:22:40.169Z,9.14
2017-04-22T00:23:49.121Z,9.11
2017-04-22T00:24:58.131Z,9.13
2017-04-22T00:26:07.406Z,9.11
2017-04-22T00:27:16.353Z,9.11
2017-04-22T00:28:25.603Z,9.04
2017-04-22T00:29:34.557Z,9.04
2017-04-22T00:30:43.505Z,9.04
2017-04-22T00:31:52.540Z,8.98
2017-04-22T00:33:01.488Z,8.89
2017-04-22T00:34:10.780Z,8.95
2017-04-22T00:35:19.729Z,8.89
2017-04-22T00:36:28.779Z,8.89
2017-04-22T00:37:37.738Z,8.86
2017-04-22T00:38:46.685Z,8.77
2017-04-22T00:39:55.932Z,8.8
2017-04-22T00:41:04.963Z,8.77
2017-04-22T00:42:13.923Z,8.76
2017-04-22T00:43:22.870Z,8.79
2017-04-22T00:44:31.817Z,8.73
2017-04-22T00:45:41.015Z,8.71
2017-04-22T00:46:49.965Z,8.68
2017-04-22T00:47:58.912Z,8.68
2017-04-22T00:49:07.858Z,8.68
2017-04-22T00:50:16.810Z,8.71
2017-04-22T00:51:26.009Z,8.56
2017-04-22T00:52:34.987Z,8.71
2017-04-22T00:53:44.494Z,8.66
2017-04-22T00:54:53.445Z,8.74
2017-04-22T00:56:02.442Z,8.65
2017-04-22T00:57:11.740Z,8.59
2017-04-22T00:58:21.459Z,8.66
2017-04-22T00:59:30.414Z,8.63
2017-04-22T01:00:39.549Z,8.65
2017-04-22T01:01:48.590Z,8.56
2017-04-22T01:02:57.786Z,8.65
2017-04-22T01:04:06.831Z,8.68
2017-04-22T01:05:15.779Z,8.62
2017-04-22T01:06:24.725Z,8.68
2017-04-22T01:07:33.684Z,8.58
2017-04-22T01:08:42.883Z,8.62
2017-04-22T01:09:51.831Z,8.53
2017-04-22T01:11:00.776Z,8.45
2017-04-22T01:12:09.724Z,8.34
2017-04-22T01:13:18.673Z,8.38
2017-04-22T01:14:27.882Z,8.36
2017-04-22T01:15:36.827Z,8.34
2017-04-22T01:16:45.775Z,8.3
2017-04-22T01:17:54.721Z,8.19
2017-04-22T01:19:03.670Z,8.3
2017-04-22T01:20:12.924Z,8.23
2017-04-22T01:21:21.902Z,8.28
2017-04-22T01:22:30.938Z,8.15
2017-04-22T01:23:39.887Z,8.11
2017-04-22T01:24:48.836Z,8.12
2017-04-22T01:25:58.097Z,8.05
2017-04-22T01:27:07.365Z,8.15
2017-04-22T01:28:16.332Z,8.16
2017-04-22T01:29:25.281Z,8.16
2017-04-22T01:30:34.231Z,8.16
2017-04-22T01:31:43.476Z,8.1
2017-04-22T01:32:52.428Z,8.08
2017-04-22T01:34:01.384Z,8.15
2017-04-22T01:35:10.417Z,8.2
2017-04-22T01:36:19.366Z,8.15
2017-04-22T01:37:28.626Z,8.11
2017-04-22T01:38:37.669Z,8.19
2017-04-22T01:39:46.625Z,8.2
2017-04-22T01:40:55.584Z,8.15
2017-04-22T01:42:04.619Z,8.07
2017-04-22T01:43:13.816Z,8.12
2017-04-22T01:44:22.766Z,8.11
2017-04-22T01:45:31.799Z,8.19
2017-04-22T01:46:40.745Z,8.12
2017-04-22T01:47:49.710Z,8.08
2017-04-22T01:48:58.906Z,8.15
2017-04-22T01:50:07.860Z,8.08
2017-04-22T01:51:16.807Z,8.08
2017-04-22T01:52:25.761Z,8.11
2017-04-22T01:53:35.023Z,8.08
2017-04-22T01:54:44.220Z,8.05
2017-04-22T01:55:53.178Z,7.98
2017-04-22T01:57:02.219Z,8.02
2017-04-22T01:58:11.168Z,7.93
2017-04-22T01:59:20.124Z,7.97
2017-04-22T02:00:29.354Z,7.9
2017-04-22T02:01:38.302Z,7.97
2017-04-22T02:02:47.254Z,7.89
2017-04-22T02:03:56.208Z,7.89
2017-04-22T02:05:05.488Z,7.9
2017-04-22T02:06:14.691Z,7.93
2017-04-22T02:07:23.640Z,7.86
2017-04-22T02:08:32.583Z,7.79
2017-04-22T02:09:41.525Z,7.85
2017-04-22T02:10:50.480Z,7.89
2017-04-22T02:11:59.677Z,7.92
2017-04-22T02:13:08.646Z,7.89
2017-04-22T02:14:17.595Z,7.83
2017-04-22T02:15:26.552Z,7.89
2017-04-22T02:16:35.525Z,7.77
2017-04-22T02:17:45.096Z,7.87
2017-04-22T02:18:54.106Z,7.9
2017-04-22T02:20:03.149Z,7.89
2017-04-22T02:21:12.148Z,7.89
2017-04-22T02:22:21.097Z,7.85
2017-04-22T02:23:30.437Z,7.82
2017-04-22T02:24:39.920Z,7.8
2017-04-22T02:25:48.946Z,7.77
2017-04-22T02:26:57.899Z,7.82
2017-04-22T02:28:06.850Z,7.79
2017-04-22T02:29:16.048Z,7.8
2017-04-22T02:30:25.004Z,7.82
2017-04-22T02:31:33.953Z,7.85
2017-04-22T02:32:42.907Z,7.87
2017-04-22T02:33:52.183Z,7.83
2017-04-22T02:35:01.519Z,7.86
2017-04-22T02:36:10.469Z,7.8
2017-04-22T02:37:19.419Z,7.93
2017-04-22T02:38:28.370Z,7.87
2017-04-22T02:39:37.316Z,7.85
2017-04-22T02:40:47.176Z,7.89
2017-04-22T02:41:56.217Z,7.86
2017-04-22T02:43:05.173Z,7.83
2017-04-22T02:44:14.153Z,7.87
2017-04-22T02:45:23.101Z,7.87
2017-04-22T02:46:32.302Z,7.89
2017-04-22T02:47:41.332Z,7.89
2017-04-22T02:48:50.275Z,7.86
2017-04-22T02:49:59.231Z,7.85
2017-04-22T02:51:08.277Z,7.87
2017-04-22T02:52:17.477Z,7.86
2017-04-22T02:53:26.427Z,7.93
2017-04-22T02:54:35.706Z,7.89
2017-04-22T02:55:44.651Z,7.9
2017-04-22T02:56:53.601Z,7.86
2017-04-22T02:58:02.805Z,7.95
2017-04-22T02:59:11.754Z,7.9
2017-04-22T03:00:20.704Z,7.89
2017-04-22T03:01:29.820Z,7.79
2017-04-22T03:02:38.773Z,7.79
2017-04-22T03:03:48.372Z,7.75
2017-04-22T03:04:57.323Z,7.74
2017-04-22T03:06:06.278Z,7.71
2017-04-22T03:07:15.226Z,7.75
2017-04-22T03:08:24.175Z,7.67
2017-04-22T03:09:33.369Z,7.64
2017-04-22T03:10:42.318Z,7.75
2017-04-22T03:11:51.265Z,7.69
2017-04-22T03:13:00.561Z,7.69
2017-04-22T03:14:09.511Z,7.63
2017-04-22T03:15:19.045Z,7.67
2017-04-22T03:16:27.994Z,7.67
2017-04-22T03:17:36.937Z,7.69
2017-04-22T03:18:45.890Z,7.63
2017-04-22T03:19:54.837Z,7.72
2017-04-22T03:21:04.090Z,7.75
2017-04-22T03:22:13.065Z,7.71
2017-04-22T03:23:22.012Z,7.63
2017-04-22T03:24:30.960Z,7.55
2017-04-22T03:25:40.238Z,7.52
2017-04-22T03:26:49.756Z,7.57
2017-04-22T03:27:58.701Z,7.67
2017-04-22T03:29:07.653Z,7.67
2017-04-22T03:30:16.797Z,7.58
2017-04-22T03:31:25.832Z,7.6
2017-04-22T03:32:35.076Z,7.61
2017-04-22T03:33:44.024Z,7.6
2017-04-22T03:34:52.974Z,7.57
2017-04-22T03:36:01.921Z,7.58
2017-04-22T03:37:10.875Z,7.52
2017-04-22T03:38:20.212Z,7.58
2017-04-22T03:39:29.167Z,7.5
2017-04-22T03:40:38.200Z,7.53
2017-04-22T03:41:47.148Z,7.58
2017-04-22T03:42:56.098Z,7.53
2017-04-22T03:44:05.298Z,7.46
2017-04-22T03:45:14.346Z,7.43
2017-04-22T03:46:23.299Z,7.39
2017-04-22T03:47:32.248Z,7.42
2017-04-22T03:48:41.228Z,7.48
2017-04-22T03:49:50.423Z,7.43
2017-04-22T03:50:59.364Z,7.46
2017-04-22T03:52:08.307Z,7.45
2017-04-22T03:53:17.254Z,7.46
2017-04-22T03:54:26.231Z,7.37
2017-04-22T03:55:35.432Z,7.31
2017-04-22T03:56:44.377Z,7.31
2017-04-22T03:57:53.325Z,7.37
2017-04-22T03:59:02.355Z,7.34
2017-04-22T04:00:11.303Z,7.4
2017-04-22T04:01:20.514Z,7.34
2017-04-22T04:02:29.460Z,7.31
2017-04-22T04:03:38.404Z,7.31
2017-04-22T04:04:47.353Z,7.37
2017-04-22T04:05:56.302Z,7.37
2017-04-22T04:07:05.503Z,7.35
2017-04-22T04:08:14.543Z,7.25
2017-04-22T04:09:23.535Z,7.32
2017-04-22T04:10:32.479Z,7.3
2017-04-22T04:11:41.422Z,7.23
2017-04-22T04:12:50.676Z,7.27
2017-04-22T04:13:59.628Z,7.28
2017-04-22T04:15:08.577Z,7.39
2017-04-22T04:16:17.522Z,7.25
2017-04-22T04:17:26.802Z,7.37
2017-04-22T04:18:35.994Z,7.32
2017-04-22T04:19:45.360Z,7.32
2017-04-22T04:20:54.310Z,7.3
2017-04-22T04:22:03.260Z,7.28
2017-04-22T04:23:12.206Z,7.34
2017-04-22T04:24:21.408Z,7.34
2017-04-22T04:25:30.362Z,7.34
2017-04-22T04:26:39.317Z,7.42
2017-04-22T04:27:48.348Z,7.45
2017-04-22T04:28:57.294Z,7.46
2017-04-22T04:30:06.497Z,7.35
2017-04-22T04:31:15.437Z,7.39
2017-04-22T04:32:24.384Z,7.4
2017-04-22T04:33:33.425Z,7.35
2017-04-22T04:34:42.371Z,7.45
2017-04-22T04:35:51.620Z,7.45
2017-04-22T04:37:00.575Z,7.46
2017-04-22T04:38:09.727Z,7.49
2017-04-22T04:39:18.674Z,7.48
2017-04-22T04:40:27.643Z,7.45
2017-04-22T04:41:36.896Z,7.58
2017-04-22T04:42:45.866Z,7.55
2017-04-22T04:43:54.814Z,7.55
2017-04-22T04:45:03.762Z,7.55
2017-04-22T04:46:12.716Z,7.53
2017-04-22T04:47:21.919Z,7.58
2017-04-22T04:48:31.221Z,7.63
2017-04-22T04:49:40.170Z,7.64
2017-04-22T04:50:49.114Z,7.67
2017-04-22T04:51:58.071Z,7.79
2017-04-22T04:53:09.016Z,7.58
2017-04-22T04:54:17.960Z,7.68
2017-04-22T04:55:26.994Z,7.64
2017-04-22T04:56:36.000Z,7.72
2017-04-22T04:57:44.944Z,7.77
2017-04-22T04:58:54.138Z,7.82
2017-04-22T05:00:04.172Z,7.79
2017-04-22T05:01:13.119Z,7.86
2017-04-22T05:02:22.109Z,7.93
2017-04-22T05:03:31.217Z,7.89
2017-04-22T05:04:40.423Z,7.98
2017-04-22T05:05:49.396Z,7.95
2017-04-22T05:06:58.340Z,7.95
2017-04-22T05:08:07.286Z,7.97
2017-04-22T05:09:16.239Z,7.87
2017-04-22T05:10:25.438Z,7.93
2017-04-22T05:11:34.386Z,7.92
2017-04-22T05:12:43.425Z,7.98
2017-04-22T05:13:52.458Z,7.97
2017-04-22T05:15:01.501Z,7.97
2017-04-22T05:16:10.750Z,8
2017-04-22T05:17:19.706Z,8.02
2017-04-22T05:18:28.697Z,8.1
2017-04-22T05:19:37.719Z,8.05
2017-04-22T05:20:46.859Z,8.05
2017-04-22T05:21:56.107Z,7.98
2017-04-22T05:23:05.061Z,8.07
2017-04-22T05:24:14.021Z,8.08
2017-04-22T05:25:22.967Z,8.1
2017-04-22T05:26:31.911Z,8.1
2017-04-22T05:27:41.157Z,8.08
2017-04-22T05:28:50.197Z,8.15
2017-04-22T05:29:59.467Z,8.07
2017-04-22T05:31:08.425Z,8.11
2017-04-22T05:32:17.374Z,8.2
2017-04-22T05:33:26.894Z,8.23
2017-04-22T05:34:35.850Z,8.2
2017-04-22T05:35:44.814Z,8.19
2017-04-22T05:36:53.759Z,8.22
2017-04-22T05:38:03.040Z,8.19
2017-04-22T05:39:12.236Z,8.22
2017-04-22T05:40:21.269Z,8.2
2017-04-22T05:41:30.217Z,8.28
2017-04-22T05:42:39.167Z,8.3
2017-04-22T05:43:48.201Z,8.4
2017-04-22T05:44:57.416Z,8.34
2017-04-22T05:46:06.566Z,8.4
2017-04-22T05:47:15.547Z,8.34
2017-04-22T05:48:24.852Z,8.41
2017-04-22T05:49:33.809Z,8.43
2017-04-22T05:50:43.061Z,8.43
2017-04-22T05:51:52.010Z,8.3
2017-04-22T05:53:00.962Z,8.26
2017-04-22T05:54:09.908Z,8.18
2017-04-22T05:55:18.864Z,8.3
2017-04-22T05:56:28.073Z,8.33
2017-04-22T05:57:37.018Z,8.28
2017-04-22T05:58:45.975Z,8.28
2017-04-22T05:59:55.253Z,8.33
2017-04-22T06:01:04.209Z,8.3
2017-04-22T06:02:13.411Z,8.3
2017-04-22T06:03:22.371Z,8.36
2017-04-22T06:04:31.322Z,8.4
2017-04-22T06:05:40.267Z,8.47
2017-04-22T06:06:49.212Z,8.52
2017-04-22T06:07:58.459Z,8.53
2017-04-22T06:09:07.403Z,8.59
2017-04-22T06:10:16.353Z,8.63
2017-04-22T06:11:25.305Z,8.63
2017-04-22T06:12:34.252Z,8.71
2017-04-22T06:13:43.831Z,8.83
2017-04-22T06:14:52.871Z,8.74
2017-04-22T06:16:01.820Z,8.76
2017-04-22T06:17:10.775Z,8.79
2017-04-22T06:18:19.723Z,8.8
2017-04-22T06:19:29.304Z,8.84
2017-04-22T06:20:38.250Z,8.73
2017-04-22T06:21:47.198Z,8.92
2017-04-22T06:22:56.309Z,8.84
2017-04-22T06:24:05.257Z,8.87
2017-04-22T06:25:14.651Z,8.89
2017-04-22T06:26:23.611Z,9.04
2017-04-22T06:27:32.855Z,9.04
2017-04-22T06:28:41.805Z,9.01
2017-04-22T06:29:50.758Z,9.13
2017-04-22T06:31:00.011Z,9.04
2017-04-22T06:32:08.966Z,9.08
2017-04-22T06:33:17.915Z,9.13
2017-04-22T06:34:26.868Z,9.14
2017-04-22T06:35:35.817Z,9.13
2017-04-22T06:36:45.019Z,9.05
2017-04-22T06:37:53.965Z,9.1
2017-04-22T06:39:02.914Z,9.15
2017-04-22T06:40:11.862Z,9.17
2017-04-22T06:41:20.804Z,9.23
2017-04-22T06:42:30.056Z,9.31
2017-04-22T06:43:39.006Z,9.32
2017-04-22T06:44:47.956Z,9.36
2017-04-22T06:45:56.915Z,9.33
2017-04-22T06:47:06.250Z,9.29
2017-04-22T06:48:15.648Z,9.15
2017-04-22T06:49:24.658Z,9.23
2017-04-22T06:50:33.725Z,9.32
2017-04-22T06:51:42.673Z,9.32
2017-04-22T06:52:51.624Z,9.32
2017-04-22T06:54:00.824Z,9.38
2017-04-22T06:55:09.779Z,9.38
2017-04-22T06:56:18.735Z,9.38
2017-04-22T06:57:27.679Z,9.47
2017-04-22T06:58:36.630Z,9.51
2017-04-22T06:59:45.830Z,9.5
2017-04-22T07:00:54.775Z,9.53
2017-04-22T07:02:03.727Z,9.46
2017-04-22T07:03:12.678Z,9.5
2017-04-22T07:04:21.632Z,9.51
2017-04-22T07:05:30.886Z,9.56
2017-04-22T07:06:39.836Z,9.53
2017-04-22T07:07:48.789Z,9.64
2017-04-22T07:08:57.741Z,9.61
2017-04-22T07:10:06.691Z,9.65
2017-04-22T07:11:16.217Z,9.68
2017-04-22T07:12:25.162Z,9.65
2017-04-22T07:13:34.110Z,9.66
2017-04-22T07:14:43.065Z,9.69
2017-04-22T07:15:52.011Z,9.84
2017-04-22T07:17:01.263Z,9.81
2017-04-22T07:18:10.232Z,9.9
2017-04-22T07:19:19.197Z,9.89
2017-04-22T07:20:28.156Z,9.89
2017-04-22T07:21:37.113Z,9.97
2017-04-22T07:22:46.357Z,10.09
2017-04-22T07:23:55.331Z,9.99
2017-04-22T07:25:04.308Z,10.02
2017-04-22T07:26:13.359Z,10.02
2017-04-22T07:27:22.628Z,9.99
2017-04-22T07:28:31.874Z,9.9
2017-04-22T07:29:40.822Z,9.87
2017-04-22T07:30:49.772Z,9.89
2017-04-22T07:31:58.719Z,10.02
2017-04-22T07:33:07.757Z,10.14
2017-04-22T07:34:17.016Z,10.25
2017-04-22T07:35:25.968Z,10.26
2017-04-22T07:36:34.914Z,10.38
2017-04-22T07:37:44.195Z,10.44
2017-04-22T07:38:53.144Z,10.51
2017-04-22T07:40:02.678Z,10.53
2017-04-22T07:41:11.647Z,10.56
2017-04-22T07:42:20.594Z,10.61
2017-04-22T07:43:29.542Z,10.63
2017-04-22T07:44:38.495Z,10.45
2017-04-22T07:45:47.743Z,10.48
2017-04-22T07:46:56.691Z,10.44
2017-04-22T07:48:05.652Z,10.33
2017-04-22T07:49:14.600Z,10.34
2017-04-22T07:50:23.546Z,10.34
2017-04-22T07:51:32.797Z,10.53
2017-04-22T07:52:42.079Z,10.52
2017-04-22T07:53:51.027Z,10.48
2017-04-22T07:54:59.974Z,10.51
2017-04-22T07:56:08.924Z,10.51
2017-04-22T07:57:18.130Z,10.55
2017-04-22T07:58:27.082Z,10.59
2017-04-22T07:59:36.355Z,10.61
2017-04-22T08:00:45.309Z,10.63
2017-04-22T08:01:54.580Z,10.64
2017-04-22T08:03:03.832Z,10.66
2017-04-22T08:04:12.792Z,10.64
2017-04-22T08:05:21.773Z,10.66
2017-04-22T08:06:30.720Z,10.74
2017-04-22T08:07:39.669Z,10.86
2017-04-22T08:08:48.877Z,10.89
2017-04-22T08:09:57.830Z,10.96
2017-04-22T08:11:06.782Z,11
2017-04-22T08:12:15.734Z,10.96
2017-04-22T08:13:24.687Z,10.85
2017-04-22T08:14:34.221Z,10.88
2017-04-22T08:15:43.495Z,10.74
2017-04-22T08:16:52.623Z,10.78
2017-04-22T08:18:01.573Z,10.7
2017-04-22T08:19:10.524Z,10.79
2017-04-22T08:20:19.730Z,10.64
2017-04-22T08:21:28.680Z,10.56
2017-04-22T08:22:37.630Z,10.61
2017-04-22T08:23:46.586Z,10.6
2017-04-22T08:24:55.540Z,10.61
2017-04-22T08:26:04.749Z,10.64
2017-04-22T08:27:13.699Z,10.47
2017-04-22T08:28:22.663Z,10.41
2017-04-22T08:29:31.700Z,10.33
2017-04-22T08:30:40.650Z,10.26
2017-04-22T08:31:49.853Z,10.18
2017-04-22T08:32:59.092Z,10.2
2017-04-22T08:34:08.410Z,10.12
2017-04-22T08:35:17.366Z,10.05
2017-04-22T08:36:26.315Z,10.05
2017-04-22T08:37:35.570Z,10.01
2017-04-22T08:38:44.525Z,9.87
2017-04-22T08:39:53.475Z,9.83
2017-04-22T08:41:02.758Z,9.72
2017-04-22T08:42:11.709Z,9.57
2017-04-22T08:43:20.975Z,9.46
2017-04-22T08:44:29.926Z,9.48
2017-04-22T08:45:38.884Z,9.47
2017-04-22T08:46:56.380Z,9.4
2017-04-22T08:48:05.336Z,9.28
2017-04-22T08:49:14.541Z,9.23
2017-04-22T08:50:23.491Z,9.18
2017-04-22T08:51:32.451Z,9.08
2017-04-22T08:52:41.420Z,9.1
2017-04-22T08:53:50.382Z,9.11
2017-04-22T08:55:00.287Z,9.04
2017-04-22T08:56:09.238Z,9.1
2017-04-22T08:57:18.190Z,9.13
2017-04-22T08:58:27.143Z,9.1
2017-04-22T08:59:36.101Z,9.17
2017-04-22T09:00:45.313Z,9.39
2017-04-22T09:01:54.263Z,9.42
2017-04-22T09:03:03.213Z,9.43
2017-04-22T09:04:12.167Z,9.46
2017-04-22T09:05:21.119Z,9.5
2017-04-22T09:06:30.314Z,9.42
2017-04-22T09:07:39.261Z,9.5
2017-04-22T09:08:48.215Z,9.47
2017-04-22T09:09:57.169Z,9.39
2017-04-22T09:11:06.124Z,9.46
2017-04-22T09:12:15.324Z,9.56
2017-04-22T09:13:24.284Z,9.53
2017-04-22T09:14:33.231Z,9.5
2017-04-22T09:15:42.186Z,9.51
2017-04-22T09:16:51.134Z,9.46
2017-04-22T09:18:00.336Z,9.47
2017-04-22T09:19:09.289Z,9.42
2017-04-22T09:20:18.238Z,9.4
2017-04-22T09:21:27.189Z,9.42
2017-04-22T09:22:36.137Z,9.39
2017-04-22T09:23:45.388Z,9.32
2017-04-22T09:24:54.343Z,9.18
2017-04-22T09:26:03.293Z,9.14
2017-04-22T09:27:12.565Z,9.05
2017-04-22T09:28:21.515Z,8.96
2017-04-22T09:29:30.771Z,8.84
2017-04-22T09:30:39.717Z,8.83
2017-04-22T09:31:48.663Z,8.87
2017-04-22T09:32:57.615Z,8.94
2017-04-22T09:34:06.562Z,8.89
2017-04-22T09:35:15.806Z,8.91
2017-04-22T09:36:25.078Z,8.92
2017-04-22T09:37:34.024Z,8.92
2017-04-22T09:38:42.979Z,8.94
2017-04-22T09:39:51.933Z,8.95
2017-04-22T09:41:01.137Z,8.86
2017-04-22T09:42:10.084Z,8.86
2017-04-22T09:43:19.030Z,8.77
2017-04-22T09:44:27.982Z,8.94
2017-04-22T09:45:36.934Z,9.08
2017-04-22T09:46:46.141Z,9.17
2017-04-22T09:47:55.101Z,9.17
2017-04-22T09:49:04.058Z,9.31
2017-04-22T09:50:13.015Z,9.43
2017-04-22T09:51:21.968Z,9.53
2017-04-22T09:52:31.182Z,9.81
2017-04-22T09:53:40.130Z,10.01
2017-04-22T09:54:49.084Z,10.17
2017-04-22T09:55:58.036Z,10.47
2017-04-22T09:57:06.987Z,10.59
2017-04-22T09:58:16.188Z,10.6
2017-04-22T09:59:25.144Z,10.67
2017-04-22T10:00:34.149Z,10.81
2017-04-22T10:01:43.100Z,10.88
2017-04-22T10:02:52.091Z,10.89
2017-04-22T10:04:01.404Z,10.88
2017-04-22T10:05:10.359Z,10.88
2017-04-22T10:06:19.330Z,10.89
2017-04-22T10:07:28.280Z,10.94
2017-04-22T10:08:37.232Z,11.02
2017-04-22T10:09:46.485Z,11.04
2017-04-22T10:10:55.460Z,11.14
2017-04-22T10:12:04.416Z,11.07
2017-04-22T10:13:13.366Z,11.11
2017-04-22T10:14:22.317Z,11.07
2017-04-22T10:15:31.573Z,11
2017-04-22T10:16:40.610Z,10.97
2017-04-22T10:17:49.651Z,11
2017-04-22T10:18:58.600Z,11.07
2017-04-22T10:20:07.548Z,11.04
2017-04-22T10:21:16.751Z,11.03
2017-04-22T10:22:25.710Z,10.97
2017-04-22T10:23:34.667Z,10.85
2017-04-22T10:24:43.617Z,10.84
2017-04-22T10:25:52.573Z,10.76
2017-04-22T10:27:01.778Z,10.67
2017-04-22T10:28:10.730Z,10.61
2017-04-22T10:29:19.736Z,10.64
2017-04-22T10:30:28.758Z,10.59
2017-04-22T10:31:37.764Z,10.52
2017-04-22T10:32:46.970Z,10.55
2017-04-22T10:33:55.949Z,10.47
2017-04-22T10:35:05.245Z,10.66
2017-04-22T10:36:14.199Z,10.81
2017-04-22T10:37:23.159Z,11.02
2017-04-22T10:38:32.414Z,11.14
2017-04-22T10:39:41.367Z,11.32
2017-04-22T10:40:50.324Z,11.44
2017-04-22T10:41:59.276Z,11.57
2017-04-22T10:43:08.232Z,11.44
2017-04-22T10:44:17.441Z,11.49
2017-04-22T10:45:26.391Z,11.36
2017-04-22T10:46:35.342Z,11.33
2017-04-22T10:47:44.292Z,11.36
2017-04-22T10:48:53.244Z,11.29
2017-04-22T10:50:02.449Z,11.24
2017-04-22T10:51:11.721Z,11.22
2017-04-22T10:52:20.669Z,11.19
2017-04-22T10:53:29.620Z,11.21
2017-04-22T10:54:38.578Z,11.27
2017-04-22T10:55:47.829Z,11.29
2017-04-22T10:56:56.865Z,11.27
2017-04-22T10:58:05.905Z,11.37
2017-04-22T10:59:14.865Z,11.24
2017-04-22T11:00:23.833Z,11.19
2017-04-22T11:01:33.093Z,11.17
2017-04-22T11:02:42.045Z,11.11
2017-04-22T11:03:50.994Z,11.11
2017-04-22T11:05:00.037Z,11.1
2017-04-22T11:06:09.018Z,11.09
2017-04-22T11:07:18.273Z,11.03
2017-04-22T11:08:27.231Z,11.14
2017-04-22T11:09:36.184Z,11.1
2017-04-22T11:10:45.142Z,11.15
2017-04-22T11:11:54.099Z,11.15
2017-04-22T11:13:03.319Z,11.18
2017-04-22T11:14:12.269Z,11.19
2017-04-22T11:15:21.225Z,11.24
2017-04-22T11:16:30.172Z,11.27
2017-04-22T11:17:39.209Z,11.29
2017-04-22T11:18:48.415Z,11.35
2017-04-22T11:19:57.371Z,11.43
2017-04-22T11:21:06.652Z,11.55
2017-04-22T11:22:15.605Z,11.65
2017-04-22T11:23:24.555Z,11.67
2017-04-22T11:24:33.810Z,11.8
2017-04-22T11:25:42.765Z,11.85
2017-04-22T11:26:52.038Z,11.9
2017-04-22T11:28:00.989Z,12.05
2017-04-22T11:29:09.943Z,12.02
2017-04-22T11:30:19.203Z,12.13
2017-04-22T11:31:28.181Z,12.16
2017-04-22T11:32:37.460Z,12.1
2017-04-22T11:33:46.742Z,12.1
2017-04-22T11:34:55.694Z,12.1
2017-04-22T11:36:04.895Z,12.12
2017-04-22T11:37:13.842Z,11.91
2017-04-22T11:38:22.795Z,11.94
2017-04-22T11:39:31.749Z,11.99
2017-04-22T11:40:40.696Z,11.91
2017-04-22T11:41:49.948Z,11.94
2017-04-22T11:42:58.909Z,11.95
2017-04-22T11:44:07.858Z,11.91
2017-04-22T11:45:16.810Z,11.99
2017-04-22T11:46:25.898Z,11.95
2017-04-22T11:47:35.487Z,12.13
2017-04-22T11:48:44.450Z,12.24
2017-04-22T11:49:53.400Z,12.23
2017-04-22T11:51:02.355Z,12.37
2017-04-22T11:52:11.311Z,12.41
2017-04-22T11:53:20.666Z,12.57
2017-04-22T11:54:29.625Z,12.67
2017-04-22T11:55:38.688Z,12.89
2017-04-22T11:56:47.646Z,12.9
2017-04-22T11:57:56.600Z,12.96
2017-04-22T11:59:05.846Z,12.97
2017-04-22T12:00:14.809Z,12.97
2017-04-22T12:01:23.760Z,12.9
2017-04-22T12:02:32.787Z,12.86
2017-04-22T12:03:41.743Z,12.72
2017-04-22T12:04:51.469Z,12.68
2017-04-22T12:06:00.425Z,12.7
2017-04-22T12:07:09.373Z,12.67
2017-04-22T12:08:18.325Z,12.57
2017-04-22T12:09:27.284Z,12.59
2017-04-22T12:10:36.503Z,12.5
2017-04-22T12:11:45.457Z,12.54
2017-04-22T12:12:54.417Z,12.49
2017-04-22T12:14:03.367Z,12.46
2017-04-22T12:15:12.325Z,12.52
2017-04-22T12:16:21.580Z,12.46
2017-04-22T12:17:30.537Z,12.39
2017-04-22T12:18:39.486Z,12.41
2017-04-22T12:19:48.442Z,12.41
2017-04-22T12:20:57.398Z,12.39
2017-04-22T12:22:06.597Z,12.39
2017-04-22T12:23:15.549Z,12.42
2017-04-22T12:24:24.508Z,12.39
2017-04-22T12:25:33.483Z,12.38
2017-04-22T12:26:42.435Z,12.54
2017-04-22T12:27:51.688Z,12.54
2017-04-22T12:29:00.645Z,12.7
2017-04-22T12:30:09.597Z,12.83
2017-04-22T12:31:18.569Z,12.85
2017-04-22T12:32:27.532Z,12.79
2017-04-22T12:33:36.786Z,12.87
2017-04-22T12:34:45.763Z,13
2017-04-22T12:35:54.714Z,12.95
2017-04-22T12:37:03.673Z,12.97
2017-04-22T12:38:12.622Z,12.83
2017-04-22T12:39:21.903Z,12.92
2017-04-22T12:40:30.863Z,12.9
2017-04-22T12:41:39.821Z,13.04
2017-04-22T12:42:48.774Z,12.89
2017-04-22T12:43:57.739Z,12.92
2017-04-22T12:45:06.983Z,12.9
2017-04-22T12:46:15.933Z,12.86
2017-04-22T12:47:24.923Z,12.9
2017-04-22T12:48:33.875Z,12.86
2017-04-22T12:49:42.828Z,12.74
2017-04-22T12:50:52.033Z,12.82
2017-04-22T12:52:00.984Z,12.7
2017-04-22T12:53:10.024Z,12.74
2017-04-22T12:54:18.984Z,12.74
2017-04-22T12:55:27.942Z,12.68
2017-04-22T12:56:37.202Z,12.7
2017-04-22T12:57:46.156Z,12.59
2017-04-22T12:58:55.262Z,12.52
2017-04-22T13:00:04.456Z,12.5
2017-04-22T13:01:13.541Z,12.5
2017-04-22T13:02:23.066Z,12.53
2017-04-22T13:03:32.181Z,12.46
2017-04-22T13:04:41.140Z,12.47
2017-04-22T13:05:50.090Z,12.49
2017-04-22T13:06:59.043Z,12.52
2017-04-22T13:08:08.410Z,12.5
2017-04-22T13:09:17.488Z,12.49
2017-04-22T13:10:26.565Z,12.45
2017-04-22T13:11:35.519Z,12.41
2017-04-22T13:12:44.471Z,12.41
2017-04-22T13:13:53.706Z,12.39
2017-04-22T13:15:02.820Z,12.46
2017-04-22T13:16:11.870Z,12.52
2017-04-22T13:17:20.824Z,12.49
2017-04-22T13:18:29.774Z,12.65
2017-04-22T13:19:39.081Z,12.56
2017-04-22T13:20:48.087Z,12.57
2017-04-22T13:21:57.036Z,12.65
2017-04-22T13:23:05.995Z,12.65
2017-04-22T13:24:14.960Z,12.7
2017-04-22T13:25:24.186Z,12.68
2017-04-22T13:26:33.140Z,12.67
2017-04-22T13:27:42.100Z,12.64
2017-04-22T13:28:51.054Z,12.71
2017-04-22T13:30:00.093Z,12.56
2017-04-22T13:31:09.346Z,12.59
2017-04-22T13:32:18.324Z,12.57
2017-04-22T13:33:27.272Z,12.54
2017-04-22T13:34:36.233Z,12.52
2017-04-22T13:35:45.188Z,12.59
2017-04-22T13:36:54.447Z,12.54
2017-04-22T13:38:03.398Z,12.47
2017-04-22T13:39:12.352Z,12.5
2017-04-22T13:40:21.405Z,12.56
2017-04-22T13:41:30.494Z,12.54
2017-04-22T13:42:39.761Z,12.56
2017-04-22T13:43:48.716Z,12.68
2017-04-22T13:44:57.665Z,12.68
2017-04-22T13:46:06.621Z,12.68
2017-04-22T13:47:15.575Z,12.72
2017-04-22T13:48:24.787Z,12.71
2017-04-22T13:49:33.732Z,12.72
2017-04-22T13:50:42.697Z,12.74
2017-04-22T13:51:51.673Z,12.85
2017-04-22T13:53:00.625Z,12.87
2017-04-22T13:54:09.888Z,12.85
2017-04-22T13:55:18.852Z,12.83
2017-04-22T13:56:27.808Z,12.85
2017-04-22T13:57:36.754Z,12.86
2017-04-22T13:58:45.720Z,12.89
2017-04-22T13:59:54.974Z,12.86
2017-04-22T14:01:03.937Z,12.74
2017-04-22T14:02:12.883Z,12.78
2017-04-22T14:03:21.834Z,12.75
2017-04-22T14:04:30.786Z,12.7
2017-04-22T14:05:40.038Z,12.7
2017-04-22T14:06:48.992Z,12.6
2017-04-22T14:07:57.942Z,12.53
2017-04-22T14:09:06.889Z,12.42
2017-04-22T14:10:16.190Z,12.31
2017-04-22T14:11:25.440Z,12.21
2017-04-22T14:12:34.502Z,12.09
2017-04-22T14:13:43.452Z,11.88
2017-04-22T14:14:52.501Z,11.7
2017-04-22T14:16:01.466Z,11.58
2017-04-22T14:17:10.663Z,11.4
2017-04-22T14:18:19.618Z,11.32
2017-04-22T14:19:28.575Z,11.35
2017-04-22T14:20:37.851Z,11.33
2017-04-22T14:21:46.800Z,11.33
2017-04-22T14:22:56.012Z,11.25
2017-04-22T14:24:04.963Z,11.22
2017-04-22T14:25:13.917Z,11.24
2017-04-22T14:26:22.869Z,11.06
2017-04-22T14:27:31.821Z,11.17
2017-04-22T14:28:41.081Z,11.06
2017-04-22T14:29:50.032Z,10.97
2017-04-22T14:30:58.984Z,11.1
2017-04-22T14:32:07.937Z,11.11
2017-04-22T14:33:16.889Z,11.04
2017-04-22T14:34:26.095Z,11.1
2017-04-22T14:35:35.049Z,11.14
2017-04-22T14:36:43.997Z,11.22
2017-04-22T14:37:52.978Z,11.19
2017-04-22T14:39:01.937Z,11.27
2017-04-22T14:40:11.155Z,11.22
2017-04-22T14:41:20.103Z,11.17
2017-04-22T14:42:29.101Z,11.22
2017-04-22T14:43:38.056Z,11.25
2017-04-22T14:44:47.339Z,11.33
2017-04-22T14:45:56.590Z,11.27
2017-04-22T14:47:05.543Z,11.24
2017-04-22T14:48:14.584Z,11.24
2017-04-22T14:49:23.538Z,11.24
2017-04-22T14:50:32.509Z,11.24
2017-04-22T14:51:41.763Z,11.21
2017-04-22T14:52:50.714Z,11.14
2017-04-22T14:53:59.996Z,11.18
2017-04-22T14:55:08.947Z,11.1
2017-04-22T14:56:17.891Z,10.92
2017-04-22T14:57:27.144Z,10.91
2017-04-22T14:58:36.118Z,10.76
2017-04-22T14:59:45.292Z,10.59
2017-04-22T15:00:54.531Z,10.63
2017-04-22T15:02:03.924Z,10.59
2017-04-22T15:03:13.944Z,10.33
2017-04-22T15:04:23.108Z,10.12
2017-04-22T15:05:32.529Z,9.86
2017-04-22T15:06:42.020Z,9.71
2017-04-22T15:07:51.342Z,9.54
2017-04-22T15:09:01.274Z,9.51
2017-04-22T15:10:10.817Z,9.4